sensor_id;sensor_type;location;lat;lon;timestamp;pressure;altitude;pressure_sealevel;temperature;humidity
16255;BME280;8235;52.198;9.904;2023-09-07T00:00:51;101454.28;;;17.69;77.26
16255;BME280;8235;52.198;9.904;2023-09-07T00:03:18;101454.63;;;17.54;75.43
16255;BME280;8235;52.198;9.904;2023-09-07T00:05:45;101447.63;;;17.40;74.93
16255;BME280;8235;52.198;9.904;2023-09-07T00:08:12;101457.53;;;17.28;75.61
16255;BME280;8235;52.198;9.904;2023-09-07T00:10:39;101463.41;;;17.22;76.11
16255;BME280;8235;52.198;9.904;2023-09-07T00:13:05;101463.91;;;17.16;76.61
16255;BME280;8235;52.198;9.904;2023-09-07T00:15:36;101470.50;;;17.12;77.12
16255;BME280;8235;52.198;9.904;2023-09-07T00:18:03;101465.56;;;17.06;77.11
16255;BME280;8235;52.198;9.904;2023-09-07T00:20:30;101462.41;;;17.01;77.59
16255;BME280;8235;52.198;9.904;2023-09-07T00:22:58;101471.69;;;16.97;78.10
16255;BME280;8235;52.198;9.904;2023-09-07T00:25:27;101464.06;;;16.91;79.13
16255;BME280;8235;52.198;9.904;2023-09-07T00:27:53;101460.16;;;16.84;78.91
16255;BME280;8235;52.198;9.904;2023-09-07T00:30:20;101459.34;;;16.71;79.62
16255;BME280;8235;52.198;9.904;2023-09-07T00:32:47;101459.06;;;16.62;80.70
16255;BME280;8235;52.198;9.904;2023-09-07T00:35:13;101464.91;;;16.56;82.23
16255;BME280;8235;52.198;9.904;2023-09-07T00:37:39;101467.59;;;16.56;83.35
16255;BME280;8235;52.198;9.904;2023-09-07T00:40:07;101463.41;;;16.52;84.37
16255;BME280;8235;52.198;9.904;2023-09-07T00:42:36;101464.38;;;16.51;84.87
16255;BME280;8235;52.198;9.904;2023-09-07T00:45:03;101466.31;;;16.49;85.55
16255;BME280;8235;52.198;9.904;2023-09-07T00:47:30;101465.34;;;16.50;86.14
16255;BME280;8235;52.198;9.904;2023-09-07T00:49:56;101462.06;;;16.47;86.25
16255;BME280;8235;52.198;9.904;2023-09-07T00:52:23;101462.16;;;16.45;86.81
16255;BME280;8235;52.198;9.904;2023-09-07T00:54:50;101452.38;;;16.44;87.30
16255;BME280;8235;52.198;9.904;2023-09-07T00:57:17;101462.16;;;16.45;87.54
16255;BME280;8235;52.198;9.904;2023-09-07T00:59:45;101468.53;;;16.44;87.60
16255;BME280;8235;52.198;9.904;2023-09-07T01:02:11;101458.72;;;16.43;87.51
16255;BME280;8235;52.198;9.904;2023-09-07T01:04:37;101461.75;;;16.39;87.66
16255;BME280;8235;52.198;9.904;2023-09-07T01:07:09;101462.31;;;16.31;87.70
16255;BME280;8235;52.198;9.904;2023-09-07T01:09:40;101460.97;;;16.25;88.86
16255;BME280;8235;52.198;9.904;2023-09-07T01:12:14;101463.88;;;16.22;89.91
16255;BME280;8235;52.198;9.904;2023-09-07T01:14:40;101458.59;;;16.21;90.18
16255;BME280;8235;52.198;9.904;2023-09-07T01:17:08;101461.19;;;16.22;90.39
16255;BME280;8235;52.198;9.904;2023-09-07T01:19:35;101454.19;;;16.20;90.31
16255;BME280;8235;52.198;9.904;2023-09-07T01:22:03;101443.47;;;16.20;90.48
16255;BME280;8235;52.198;9.904;2023-09-07T01:24:31;101448.84;;;16.20;90.25
16255;BME280;8235;52.198;9.904;2023-09-07T01:27:01;101447.84;;;16.21;90.29
16255;BME280;8235;52.198;9.904;2023-09-07T01:29:28;101450.66;;;16.19;89.66
16255;BME280;8235;52.198;9.904;2023-09-07T01:31:55;101446.38;;;16.17;89.82
16255;BME280;8235;52.198;9.904;2023-09-07T01:34:22;101440.34;;;16.13;90.12
16255;BME280;8235;52.198;9.904;2023-09-07T01:36:48;101446.84;;;16.11;89.92
16255;BME280;8235;52.198;9.904;2023-09-07T01:39:17;101453.19;;;16.10;89.60
16255;BME280;8235;52.198;9.904;2023-09-07T01:41:43;101447.16;;;16.06;88.86
16255;BME280;8235;52.198;9.904;2023-09-07T01:44:10;101447.38;;;16.03;88.51
16255;BME280;8235;52.198;9.904;2023-09-07T01:46:36;101449.44;;;16.00;88.18
16255;BME280;8235;52.198;9.904;2023-09-07T01:49:03;101447.94;;;15.95;88.70
16255;BME280;8235;52.198;9.904;2023-09-07T01:51:29;101448.19;;;15.92;89.38
16255;BME280;8235;52.198;9.904;2023-09-07T01:53:56;101445.72;;;15.89;90.01
16255;BME280;8235;52.198;9.904;2023-09-07T01:56:23;101452.06;;;15.88;90.27
16255;BME280;8235;52.198;9.904;2023-09-07T01:58:50;101452.38;;;15.84;91.21
16255;BME280;8235;52.198;9.904;2023-09-07T02:01:23;101455.28;;;15.81;91.40
16255;BME280;8235;52.198;9.904;2023-09-07T02:03:50;101452.72;;;15.79;91.33
16255;BME280;8235;52.198;9.904;2023-09-07T02:06:17;101460.16;;;15.76;90.63
16255;BME280;8235;52.198;9.904;2023-09-07T02:08:43;101453.59;;;15.67;90.89
16255;BME280;8235;52.198;9.904;2023-09-07T02:11:10;101457.81;;;15.58;91.60
16255;BME280;8235;52.198;9.904;2023-09-07T02:13:41;101459.94;;;15.53;92.00
16255;BME280;8235;52.198;9.904;2023-09-07T02:16:07;101456.50;;;15.51;92.83
16255;BME280;8235;52.198;9.904;2023-09-07T02:18:35;101452.41;;;15.46;93.30
16255;BME280;8235;52.198;9.904;2023-09-07T02:21:02;101450.91;;;15.42;93.96
16255;BME280;8235;52.198;9.904;2023-09-07T02:23:29;101456.53;;;15.39;94.36
16255;BME280;8235;52.198;9.904;2023-09-07T02:25:55;101452.34;;;15.35;95.07
16255;BME280;8235;52.198;9.904;2023-09-07T02:28:22;101446.31;;;15.31;95.16
16255;BME280;8235;52.198;9.904;2023-09-07T02:30:49;101451.03;;;15.27;95.78
16255;BME280;8235;52.198;9.904;2023-09-07T02:33:16;101448.56;;;15.24;96.14
16255;BME280;8235;52.198;9.904;2023-09-07T02:35:42;101450.63;;;15.21;96.45
16255;BME280;8235;52.198;9.904;2023-09-07T02:38:09;101453.41;;;15.19;96.47
16255;BME280;8235;52.198;9.904;2023-09-07T02:40:40;101452.66;;;15.17;96.68
16255;BME280;8235;52.198;9.904;2023-09-07T02:43:07;101454.59;;;15.15;96.62
16255;BME280;8235;52.198;9.904;2023-09-07T02:45:34;101457.38;;;15.14;96.76
16255;BME280;8235;52.198;9.904;2023-09-07T02:48:02;101455.66;;;15.13;96.99
16255;BME280;8235;52.198;9.904;2023-09-07T02:50:31;101458.44;;;15.11;97.15
16255;BME280;8235;52.198;9.904;2023-09-07T02:52:58;101455.00;;;15.09;97.03
16255;BME280;8235;52.198;9.904;2023-09-07T02:55:25;101462.28;;;15.07;97.04
16255;BME280;8235;52.198;9.904;2023-09-07T02:57:52;101457.28;;;15.03;97.10
16255;BME280;8235;52.198;9.904;2023-09-07T03:00:18;101461.88;;;15.01;97.29
16255;BME280;8235;52.198;9.904;2023-09-07T03:02:45;101452.13;;;15.00;97.09
16255;BME280;8235;52.198;9.904;2023-09-07T03:05:15;101452.41;;;14.95;97.26
16255;BME280;8235;52.198;9.904;2023-09-07T03:07:41;101452.63;;;14.92;97.47
16255;BME280;8235;52.198;9.904;2023-09-07T03:10:09;101449.19;;;14.90;97.76
16255;BME280;8235;52.198;9.904;2023-09-07T03:12:35;101448.22;;;14.91;98.09
16255;BME280;8235;52.198;9.904;2023-09-07T03:15:02;101442.09;;;14.89;98.21
16255;BME280;8235;52.198;9.904;2023-09-07T03:17:29;101451.09;;;14.88;98.34
16255;BME280;8235;52.198;9.904;2023-09-07T03:19:55;101449.38;;;14.87;98.14
16255;BME280;8235;52.198;9.904;2023-09-07T03:22:24;101453.06;;;14.86;97.88
16255;BME280;8235;52.198;9.904;2023-09-07T03:24:50;101453.28;;;14.83;98.29
16255;BME280;8235;52.198;9.904;2023-09-07T03:27:17;101453.38;;;14.81;97.86
16255;BME280;8235;52.198;9.904;2023-09-07T03:29:44;101455.28;;;14.79;96.72
16255;BME280;8235;52.198;9.904;2023-09-07T03:32:10;101450.44;;;14.72;95.50
16255;BME280;8235;52.198;9.904;2023-09-07T03:34:38;101447.44;;;14.64;95.93
16255;BME280;8235;52.198;9.904;2023-09-07T03:37:05;101452.03;;;14.62;96.89
16255;BME280;8235;52.198;9.904;2023-09-07T03:39:33;101459.44;;;14.58;97.89
16255;BME280;8235;52.198;9.904;2023-09-07T03:41:59;101458.47;;;14.59;98.57
16255;BME280;8235;52.198;9.904;2023-09-07T03:44:26;101458.56;;;14.57;98.87
16255;BME280;8235;52.198;9.904;2023-09-07T03:46:52;101455.88;;;14.57;98.88
16255;BME280;8235;52.198;9.904;2023-09-07T03:49:18;101456.66;;;14.59;98.67
16255;BME280;8235;52.198;9.904;2023-09-07T03:51:45;101459.22;;;14.61;98.29
16255;BME280;8235;52.198;9.904;2023-09-07T03:54:11;101468.44;;;14.57;98.06
16255;BME280;8235;52.198;9.904;2023-09-07T03:56:39;101461.66;;;14.51;97.67
16255;BME280;8235;52.198;9.904;2023-09-07T03:59:06;101466.28;;;14.49;97.66
16255;BME280;8235;52.198;9.904;2023-09-07T04:01:32;101466.47;;;14.46;97.60
16255;BME280;8235;52.198;9.904;2023-09-07T04:03:59;101464.75;;;14.45;97.75
16255;BME280;8235;52.198;9.904;2023-09-07T04:06:25;101464.84;;;14.44;97.74
16255;BME280;8235;52.198;9.904;2023-09-07T04:08:52;101467.44;;;14.45;97.85
16255;BME280;8235;52.198;9.904;2023-09-07T04:11:18;101466.47;;;14.46;98.14
16255;BME280;8235;52.198;9.904;2023-09-07T04:13:46;101469.16;;;14.46;97.87
16255;BME280;8235;52.198;9.904;2023-09-07T04:16:13;101465.63;;;14.46;97.98
16255;BME280;8235;52.198;9.904;2023-09-07T04:18:39;101461.13;;;14.46;97.37
16255;BME280;8235;52.198;9.904;2023-09-07T04:21:06;101472.03;;;14.43;96.19
16255;BME280;8235;52.198;9.904;2023-09-07T04:23:33;101468.09;;;14.35;94.18
16255;BME280;8235;52.198;9.904;2023-09-07T04:26:05;101471.28;;;14.27;92.96
16255;BME280;8235;52.198;9.904;2023-09-07T04:28:32;101475.31;;;14.20;92.36
16255;BME280;8235;52.198;9.904;2023-09-07T04:30:59;101473.94;;;14.14;92.05
16255;BME280;8235;52.198;9.904;2023-09-07T04:33:26;101475.09;;;14.10;93.35
16255;BME280;8235;52.198;9.904;2023-09-07T04:35:52;101480.44;;;14.10;94.09
16255;BME280;8235;52.198;9.904;2023-09-07T04:38:19;101482.25;;;14.10;94.07
16255;BME280;8235;52.198;9.904;2023-09-07T04:40:45;101478.81;;;14.08;94.24
16255;BME280;8235;52.198;9.904;2023-09-07T04:43:12;101474.81;;;14.01;93.86
16255;BME280;8235;52.198;9.904;2023-09-07T04:45:45;101476.28;;;13.92;93.23
16255;BME280;8235;52.198;9.904;2023-09-07T04:48:13;101481.16;;;13.85;93.49
16255;BME280;8235;52.198;9.904;2023-09-07T04:50:40;101482.59;;;13.77;94.14
16255;BME280;8235;52.198;9.904;2023-09-07T04:53:06;101482.78;;;13.74;96.05
16255;BME280;8235;52.198;9.904;2023-09-07T04:55:37;101479.16;;;13.75;97.04
16255;BME280;8235;52.198;9.904;2023-09-07T04:58:03;101483.47;;;13.77;97.99
16255;BME280;8235;52.198;9.904;2023-09-07T05:00:30;101485.94;;;13.80;98.27
16255;BME280;8235;52.198;9.904;2023-09-07T05:02:56;101485.72;;;13.83;98.85
16255;BME280;8235;52.198;9.904;2023-09-07T05:05:25;101489.94;;;13.87;98.92
16255;BME280;8235;52.198;9.904;2023-09-07T05:07:51;101490.03;;;13.86;98.61
16255;BME280;8235;52.198;9.904;2023-09-07T05:10:19;101488.22;;;13.86;98.61
16255;BME280;8235;52.198;9.904;2023-09-07T05:12:45;101488.13;;;13.88;99.08
16255;BME280;8235;52.198;9.904;2023-09-07T05:15:12;101496.81;;;13.92;100.00
16255;BME280;8235;52.198;9.904;2023-09-07T05:17:38;101488.59;;;13.95;100.00
16255;BME280;8235;52.198;9.904;2023-09-07T05:20:06;101486.38;;;14.01;100.00
16255;BME280;8235;52.198;9.904;2023-09-07T05:22:35;101493.25;;;14.05;100.00
16255;BME280;8235;52.198;9.904;2023-09-07T05:25:05;101496.59;;;14.09;100.00
16255;BME280;8235;52.198;9.904;2023-09-07T05:27:31;101490.09;;;14.13;100.00
16255;BME280;8235;52.198;9.904;2023-09-07T05:29:58;101497.91;;;14.16;100.00
16255;BME280;8235;52.198;9.904;2023-09-07T05:32:24;101483.47;;;14.18;100.00
16255;BME280;8235;52.198;9.904;2023-09-07T05:34:51;101487.66;;;14.22;100.00
16255;BME280;8235;52.198;9.904;2023-09-07T05:37:17;101483.63;;;14.30;100.00
16255;BME280;8235;52.198;9.904;2023-09-07T05:39:45;101488.69;;;14.34;100.00
16255;BME280;8235;52.198;9.904;2023-09-07T05:42:12;101484.75;;;14.40;100.00
16255;BME280;8235;52.198;9.904;2023-09-07T05:44:38;101491.56;;;14.45;100.00
16255;BME280;8235;52.198;9.904;2023-09-07T05:47:05;101486.63;;;14.52;100.00
16255;BME280;8235;52.198;9.904;2023-09-07T05:49:31;101487.09;;;14.58;100.00
16255;BME280;8235;52.198;9.904;2023-09-07T05:51:58;101488.41;;;14.66;100.00
16255;BME280;8235;52.198;9.904;2023-09-07T05:54:25;101494.09;;;14.74;100.00
16255;BME280;8235;52.198;9.904;2023-09-07T05:56:52;101494.47;;;14.82;100.00
16255;BME280;8235;52.198;9.904;2023-09-07T05:59:19;101484.16;;;14.88;100.00
16255;BME280;8235;52.198;9.904;2023-09-07T06:01:45;101488.81;;;14.99;100.00
16255;BME280;8235;52.198;9.904;2023-09-07T06:04:12;101483.75;;;15.07;100.00
16255;BME280;8235;52.198;9.904;2023-09-07T06:06:39;101485.81;;;15.16;100.00
16255;BME280;8235;52.198;9.904;2023-09-07T06:09:05;101488.59;;;15.27;100.00
16255;BME280;8235;52.198;9.904;2023-09-07T06:11:32;101489.59;;;15.39;100.00
16255;BME280;8235;52.198;9.904;2023-09-07T06:14:00;101487.84;;;15.51;100.00
16255;BME280;8235;52.198;9.904;2023-09-07T06:16:28;101505.06;;;15.61;100.00
16255;BME280;8235;52.198;9.904;2023-09-07T06:18:54;101496.16;;;15.73;100.00
16255;BME280;8235;52.198;9.904;2023-09-07T06:21:21;101502.56;;;15.83;100.00
16255;BME280;8235;52.198;9.904;2023-09-07T06:23:47;101503.63;;;15.93;99.26
16255;BME280;8235;52.198;9.904;2023-09-07T06:26:15;101501.03;;;16.05;98.23
16255;BME280;8235;52.198;9.904;2023-09-07T06:28:43;101510.13;;;16.15;97.13
16255;BME280;8235;52.198;9.904;2023-09-07T06:31:11;101503.13;;;16.25;97.02
16255;BME280;8235;52.198;9.904;2023-09-07T06:33:37;101504.66;;;16.40;96.09
16255;BME280;8235;52.198;9.904;2023-09-07T06:36:04;101508.16;;;16.53;95.16
16255;BME280;8235;52.198;9.904;2023-09-07T06:38:30;101506.28;;;16.66;94.39
16255;BME280;8235;52.198;9.904;2023-09-07T06:40:56;101514.41;;;16.78;93.08
16255;BME280;8235;52.198;9.904;2023-09-07T06:43:23;101517.03;;;16.90;92.73
16255;BME280;8235;52.198;9.904;2023-09-07T06:45:49;101509.59;;;17.05;92.22
16255;BME280;8235;52.198;9.904;2023-09-07T06:48:17;101521.88;;;17.20;91.46
16255;BME280;8235;52.198;9.904;2023-09-07T06:50:44;101519.13;;;17.33;90.26
16255;BME280;8235;52.198;9.904;2023-09-07T06:53:10;101517.16;;;17.46;89.40
16255;BME280;8235;52.198;9.904;2023-09-07T06:55:36;101513.38;;;17.60;88.36
16255;BME280;8235;52.198;9.904;2023-09-07T06:58:03;101512.19;;;17.75;87.79
16255;BME280;8235;52.198;9.904;2023-09-07T07:00:29;101511.00;;;17.90;86.65
16255;BME280;8235;52.198;9.904;2023-09-07T07:02:56;101509.13;;;18.02;83.98
16255;BME280;8235;52.198;9.904;2023-09-07T07:05:31;101517.94;;;18.15;83.90
16255;BME280;8235;52.198;9.904;2023-09-07T07:07:59;101507.72;;;18.30;83.65
16255;BME280;8235;52.198;9.904;2023-09-07T07:10:25;101514.31;;;18.48;83.02
16255;BME280;8235;52.198;9.904;2023-09-07T07:12:52;101506.09;;;18.61;80.86
16255;BME280;8235;52.198;9.904;2023-09-07T07:15:18;101511.06;;;18.77;80.92
16255;BME280;8235;52.198;9.904;2023-09-07T07:17:45;101508.78;;;18.93;80.20
16255;BME280;8235;52.198;9.904;2023-09-07T07:20:11;101514.47;;;19.11;79.31
16255;BME280;8235;52.198;9.904;2023-09-07T07:22:39;101499.50;;;19.27;79.18
16255;BME280;8235;52.198;9.904;2023-09-07T07:25:06;101509.81;;;19.43;78.13
16255;BME280;8235;52.198;9.904;2023-09-07T07:27:32;101505.69;;;19.60;77.54
16255;BME280;8235;52.198;9.904;2023-09-07T07:29:59;101508.03;;;19.74;77.39
16255;BME280;8235;52.198;9.904;2023-09-07T07:32:26;101508.38;;;19.90;77.20
16255;BME280;8235;52.198;9.904;2023-09-07T07:34:52;101502.31;;;20.07;77.09
16255;BME280;8235;52.198;9.904;2023-09-07T07:37:19;101505.19;;;20.25;75.99
16255;BME280;8235;52.198;9.904;2023-09-07T07:39:46;101505.72;;;20.40;74.88
16255;BME280;8235;52.198;9.904;2023-09-07T07:42:13;101506.28;;;20.53;74.35
16255;BME280;8235;52.198;9.904;2023-09-07T07:44:39;101507.72;;;20.67;73.89
16255;BME280;8235;52.198;9.904;2023-09-07T07:47:06;101507.16;;;20.83;74.27
16255;BME280;8235;52.198;9.904;2023-09-07T07:49:32;101516.28;;;21.01;73.90
16255;BME280;8235;52.198;9.904;2023-09-07T07:51:59;101520.09;;;21.18;73.56
16255;BME280;8235;52.198;9.904;2023-09-07T07:54:26;101519.69;;;21.32;70.73
16255;BME280;8235;52.198;9.904;2023-09-07T07:56:55;101522.81;;;21.46;70.12
16255;BME280;8235;52.198;9.904;2023-09-07T07:59:22;101515.78;;;21.63;70.47
16255;BME280;8235;52.198;9.904;2023-09-07T08:01:48;101511.56;;;21.78;69.08
16255;BME280;8235;52.198;9.904;2023-09-07T08:04:15;101514.63;;;21.93;68.77
16255;BME280;8235;52.198;9.904;2023-09-07T08:06:41;101503.47;;;22.06;68.03
16255;BME280;8235;52.198;9.904;2023-09-07T08:09:07;101505.50;;;22.22;67.71
16255;BME280;8235;52.198;9.904;2023-09-07T08:11:35;101501.16;;;22.38;67.53
16255;BME280;8235;52.198;9.904;2023-09-07T08:14:05;101493.03;;;22.56;67.13
16255;BME280;8235;52.198;9.904;2023-09-07T08:16:31;101503.03;;;22.73;65.89
16255;BME280;8235;52.198;9.904;2023-09-07T08:18:58;101494.38;;;22.88;65.39
16255;BME280;8235;52.198;9.904;2023-09-07T08:21:24;101488.69;;;22.99;64.22
16255;BME280;8235;52.198;9.904;2023-09-07T08:23:52;101489.31;;;23.10;63.64
16255;BME280;8235;52.198;9.904;2023-09-07T08:26:19;101488.88;;;23.23;64.04
16255;BME280;8235;52.198;9.904;2023-09-07T08:28:46;101491.16;;;23.36;62.50
16255;BME280;8235;52.198;9.904;2023-09-07T08:31:14;101488.88;;;23.49;62.75
16255;BME280;8235;52.198;9.904;2023-09-07T08:33:46;101485.75;;;23.62;62.59
16255;BME280;8235;52.198;9.904;2023-09-07T08:36:15;101483.28;;;23.76;62.02
16255;BME280;8235;52.198;9.904;2023-09-07T08:38:43;101484.38;;;23.92;61.55
16255;BME280;8235;52.198;9.904;2023-09-07T08:41:09;101483.91;;;24.04;60.68
16255;BME280;8235;52.198;9.904;2023-09-07T08:43:44;101486.38;;;24.23;60.06
16255;BME280;8235;52.198;9.904;2023-09-07T08:46:15;101489.31;;;24.38;59.88
16255;BME280;8235;52.198;9.904;2023-09-07T08:48:43;101496.00;;;24.52;59.24
16255;BME280;8235;52.198;9.904;2023-09-07T08:51:11;101497.38;;;24.64;57.14
16255;BME280;8235;52.198;9.904;2023-09-07T08:53:39;101496.72;;;24.70;56.82
16255;BME280;8235;52.198;9.904;2023-09-07T08:56:07;101497.22;;;24.82;56.85
16255;BME280;8235;52.198;9.904;2023-09-07T08:58:35;101503.34;;;24.92;55.42
16255;BME280;8235;52.198;9.904;2023-09-07T09:01:02;101497.09;;;25.00;55.57
16255;BME280;8235;52.198;9.904;2023-09-07T09:03:29;101492.16;;;25.03;54.87
16255;BME280;8235;52.198;9.904;2023-09-07T09:05:56;101491.81;;;25.06;54.20
16255;BME280;8235;52.198;9.904;2023-09-07T09:08:23;101505.25;;;25.16;55.01
16255;BME280;8235;52.198;9.904;2023-09-07T09:10:59;101492.97;;;25.28;55.02
16255;BME280;8235;52.198;9.904;2023-09-07T09:13:30;101485.81;;;25.35;53.73
16255;BME280;8235;52.198;9.904;2023-09-07T09:15:58;101488.34;;;25.45;54.07
16255;BME280;8235;52.198;9.904;2023-09-07T09:18:25;101490.53;;;25.57;54.16
16255;BME280;8235;52.198;9.904;2023-09-07T09:20:54;101484.72;;;25.69;53.10
16255;BME280;8235;52.198;9.904;2023-09-07T09:23:20;101484.34;;;25.80;53.42
16255;BME280;8235;52.198;9.904;2023-09-07T09:25:47;101487.56;;;25.91;52.64
16255;BME280;8235;52.198;9.904;2023-09-07T09:28:14;101480.84;;;26.02;53.48
16255;BME280;8235;52.198;9.904;2023-09-07T09:30:41;101472.94;;;26.15;52.41
16255;BME280;8235;52.198;9.904;2023-09-07T09:33:09;101470.16;;;26.23;51.81
16255;BME280;8235;52.198;9.904;2023-09-07T09:35:36;101464.88;;;26.30;50.74
16255;BME280;8235;52.198;9.904;2023-09-07T09:38:05;101468.91;;;26.34;51.28
16255;BME280;8235;52.198;9.904;2023-09-07T09:40:32;101458.81;;;26.43;51.41
16255;BME280;8235;52.198;9.904;2023-09-07T09:43:01;101462.72;;;26.48;50.55
16255;BME280;8235;52.198;9.904;2023-09-07T09:45:28;101458.38;;;26.54;49.23
16255;BME280;8235;52.198;9.904;2023-09-07T09:47:55;101459.53;;;26.59;48.96
16255;BME280;8235;52.198;9.904;2023-09-07T09:50:22;101453.53;;;26.64;49.05
16255;BME280;8235;52.198;9.904;2023-09-07T09:52:50;101454.31;;;26.73;49.46
16255;BME280;8235;52.198;9.904;2023-09-07T09:55:19;101450.84;;;26.79;48.93
16255;BME280;8235;52.198;9.904;2023-09-07T09:57:46;101448.72;;;26.89;49.45
16255;BME280;8235;52.198;9.904;2023-09-07T10:00:13;101453.47;;;26.95;47.55
16255;BME280;8235;52.198;9.904;2023-09-07T10:03:00;101447.81;;;26.96;47.59
16255;BME280;8235;52.198;9.904;2023-09-07T10:05:27;101445.84;;;27.05;47.97
16255;BME280;8235;52.198;9.904;2023-09-07T10:08:00;101449.75;;;27.11;47.44
16255;BME280;8235;52.198;9.904;2023-09-07T10:10:33;101444.38;;;27.17;47.29
16255;BME280;8235;52.198;9.904;2023-09-07T10:13:00;101448.91;;;27.25;47.38
16255;BME280;8235;52.198;9.904;2023-09-07T10:15:27;101439.22;;;27.37;47.66
16255;BME280;8235;52.198;9.904;2023-09-07T10:18:09;101436.84;;;27.49;46.65
16255;BME280;8235;52.198;9.904;2023-09-07T10:20:53;101436.97;;;27.55;46.86
16255;BME280;8235;52.198;9.904;2023-09-07T10:23:21;101441.69;;;27.61;46.93
16255;BME280;8235;52.198;9.904;2023-09-07T10:25:50;101435.84;;;27.64;46.42
16255;BME280;8235;52.198;9.904;2023-09-07T10:28:18;101438.97;;;27.61;46.05
16255;BME280;8235;52.198;9.904;2023-09-07T10:30:45;101437.91;;;27.62;45.71
16255;BME280;8235;52.198;9.904;2023-09-07T10:33:19;101427.63;;;27.64;45.47
16255;BME280;8235;52.198;9.904;2023-09-07T10:35:46;101429.44;;;27.72;45.92
16255;BME280;8235;52.198;9.904;2023-09-07T10:38:13;101428.66;;;27.78;45.40
16255;BME280;8235;52.198;9.904;2023-09-07T10:40:40;101425.81;;;27.86;45.31
16255;BME280;8235;52.198;9.904;2023-09-07T10:43:09;101426.75;;;27.93;44.99
16255;BME280;8235;52.198;9.904;2023-09-07T10:45:35;101416.53;;;28.02;45.29
16255;BME280;8235;52.198;9.904;2023-09-07T10:48:02;101418.50;;;28.08;45.25
16255;BME280;8235;52.198;9.904;2023-09-07T10:50:29;101419.41;;;28.15;44.30
16255;BME280;8235;52.198;9.904;2023-09-07T10:52:56;101415.28;;;28.19;44.79
16255;BME280;8235;52.198;9.904;2023-09-07T10:55:22;101409.03;;;28.25;45.12
16255;BME280;8235;52.198;9.904;2023-09-07T10:57:49;101415.56;;;28.24;44.12
16255;BME280;8235;52.198;9.904;2023-09-07T11:00:17;101407.34;;;28.24;43.54
16255;BME280;8235;52.198;9.904;2023-09-07T11:02:43;101417.91;;;28.27;44.46
16255;BME280;8235;52.198;9.904;2023-09-07T11:05:10;101413.34;;;28.34;43.83
16255;BME280;8235;52.198;9.904;2023-09-07T11:07:37;101408.59;;;28.43;44.66
16255;BME280;8235;52.198;9.904;2023-09-07T11:10:06;101412.03;;;28.52;44.28
16255;BME280;8235;52.198;9.904;2023-09-07T11:12:36;101408.72;;;28.56;43.72
16255;BME280;8235;52.198;9.904;2023-09-07T11:15:04;101400.97;;;28.60;43.27
16255;BME280;8235;52.198;9.904;2023-09-07T11:17:32;101401.84;;;28.67;44.22
16255;BME280;8235;52.198;9.904;2023-09-07T11:19:58;101398.72;;;28.70;43.30
16255;BME280;8235;52.198;9.904;2023-09-07T11:22:30;101398.13;;;28.75;43.75
16255;BME280;8235;52.198;9.904;2023-09-07T11:24:56;101391.22;;;28.79;43.17
16255;BME280;8235;52.198;9.904;2023-09-07T11:27:29;101390.44;;;28.85;43.64
16255;BME280;8235;52.198;9.904;2023-09-07T11:29:55;101390.69;;;28.90;43.58
16255;BME280;8235;52.198;9.904;2023-09-07T11:32:23;101393.03;;;28.93;42.76
16255;BME280;8235;52.198;9.904;2023-09-07T11:34:51;101382.25;;;28.91;41.75
16255;BME280;8235;52.198;9.904;2023-09-07T11:37:23;101378.59;;;28.84;42.39
16255;BME280;8235;52.198;9.904;2023-09-07T11:39:49;101382.44;;;28.83;41.82
16255;BME280;8235;52.198;9.904;2023-09-07T11:42:16;101390.00;;;28.81;42.64
16255;BME280;8235;52.198;9.904;2023-09-07T11:44:42;101384.31;;;28.83;42.32
16255;BME280;8235;52.198;9.904;2023-09-07T11:47:09;101380.97;;;28.87;42.30
16255;BME280;8235;52.198;9.904;2023-09-07T11:49:35;101379.53;;;28.91;43.24
16255;BME280;8235;52.198;9.904;2023-09-07T11:52:04;101375.28;;;28.89;42.51
16255;BME280;8235;52.198;9.904;2023-09-07T11:54:30;101374.19;;;28.83;41.76
16255;BME280;8235;52.198;9.904;2023-09-07T11:56:57;101374.09;;;28.77;41.99
16255;BME280;8235;52.198;9.904;2023-09-07T11:59:23;101375.81;;;28.78;42.56
16255;BME280;8235;52.198;9.904;2023-09-07T12:01:50;101378.75;;;28.76;42.26
16255;BME280;8235;52.198;9.904;2023-09-07T12:04:16;101368.25;;;28.80;42.71
16255;BME280;8235;52.198;9.904;2023-09-07T12:06:43;101377.19;;;28.88;42.48
16255;BME280;8235;52.198;9.904;2023-09-07T12:09:11;101370.25;;;28.92;41.90
16255;BME280;8235;52.198;9.904;2023-09-07T12:11:37;101368.81;;;28.96;42.50
16255;BME280;8235;52.198;9.904;2023-09-07T12:14:04;101374.31;;;29.03;42.04
16255;BME280;8235;52.198;9.904;2023-09-07T12:16:30;101376.00;;;29.04;42.04
16255;BME280;8235;52.198;9.904;2023-09-07T12:18:57;101370.97;;;29.01;41.90
16255;BME280;8235;52.198;9.904;2023-09-07T12:21:24;101374.94;;;28.98;41.84
16255;BME280;8235;52.198;9.904;2023-09-07T12:23:50;101366.25;;;28.95;41.42
16255;BME280;8235;52.198;9.904;2023-09-07T12:26:18;101365.22;;;28.96;41.85
16255;BME280;8235;52.198;9.904;2023-09-07T12:28:46;101368.81;;;28.96;42.62
16255;BME280;8235;52.198;9.904;2023-09-07T12:31:13;101361.88;;;29.00;43.13
16255;BME280;8235;52.198;9.904;2023-09-07T12:33:40;101356.81;;;29.04;42.51
16255;BME280;8235;52.198;9.904;2023-09-07T12:36:06;101360.00;;;29.01;42.41
16255;BME280;8235;52.198;9.904;2023-09-07T12:38:35;101361.22;;;28.98;42.06
16255;BME280;8235;52.198;9.904;2023-09-07T12:41:01;101362.94;;;28.99;42.35
16255;BME280;8235;52.198;9.904;2023-09-07T12:43:29;101346.03;;;29.02;42.02
16255;BME280;8235;52.198;9.904;2023-09-07T12:45:56;101351.97;;;28.99;42.74
16255;BME280;8235;52.198;9.904;2023-09-07T12:48:22;101350.91;;;29.00;43.32
16255;BME280;8235;52.198;9.904;2023-09-07T12:50:49;101347.75;;;29.03;42.43
16255;BME280;8235;52.198;9.904;2023-09-07T12:53:15;101350.91;;;29.00;42.34
16255;BME280;8235;52.198;9.904;2023-09-07T12:55:42;101350.25;;;28.98;42.09
16255;BME280;8235;52.198;9.904;2023-09-07T12:58:09;101347.53;;;28.98;41.77
16255;BME280;8235;52.198;9.904;2023-09-07T13:00:36;101341.59;;;28.95;42.75